Time;durP1;ratioP1;P1;durP2;ratioP2;P2;SDS_P1;SDS_P2;PMS_P1;PMS_P2;Temp;Humidity;BMP_temperature;BMP_pressure;BME280_temperature;BME280_humidity;BME280_pressure;Samples;Min_cycle;Max_cycle;Signal;HPM_P1;HPM_P2
2022/04/05 00:01:31;;;;;;;5.50;4.28;;;;;;;;;;5052214;28;20268;-88
2022/04/05 00:03:57;;;;;;;5.75;5.15;;;;;;;;;;5039663;28;20205;-89
2022/04/05 00:06:23;;;;;;;6.80;3.92;;;;;;;;;;5030486;28;20190;-87
2022/04/05 00:08:49;;;;;;;4.80;4.40;;;;;;;;;;5030300;28;20173;-87
2022/04/05 00:11:15;;;;;;;8.15;5.53;;;;;;;;;;5041936;28;20193;-87
2022/04/05 00:13:41;;;;;;;5.00;4.50;;;;;;;;;;5039213;28;20319;-88
2022/04/05 00:16:07;;;;;;;5.85;4.97;;;;;;;;;;5042748;28;20178;-89
2022/04/05 00:18:33;;;;;;;5.35;4.50;;;;;;;;;;5026154;28;20266;-87
2022/04/05 00:20:59;;;;;;;4.95;4.40;;;;;;;;;;5031848;28;20181;-88
2022/04/05 00:23:25;;;;;;;8.93;5.40;;;;;;;;;;5037152;28;20210;-88
2022/04/05 00:25:51;;;;;;;5.50;4.85;;;;;;;;;;5039321;28;20213;-86
2022/04/05 00:28:17;;;;;;;8.13;5.43;;;;;;;;;;5046199;28;20236;-86
2022/04/05 00:30:43;;;;;;;4.95;4.50;;;;;;;;;;5045398;28;20181;-88
2022/04/05 00:33:09;;;;;;;6.75;4.60;;;;;;;;;;5040380;28;20350;-87
2022/04/05 00:35:35;;;;;;;5.85;5.05;;;;;;;;;;5040812;28;20850;-86
2022/04/05 00:38:01;;;;;;;5.68;5.00;;;;;;;;;;5043122;28;20540;-87
2022/04/05 00:40:30;;;;;;;7.53;4.65;;;;;;;;;;5052011;28;20191;-88
2022/04/05 00:42:56;;;;;;;5.13;4.63;;;;;;;;;;5044798;28;20232;-88
2022/04/05 00:45:22;;;;;;;5.72;4.63;;;;;;;;;;5034783;28;20190;-90
2022/04/05 00:47:52;;;;;;;8.18;5.10;;;;;;;;;;5033436;28;20193;-87
2022/04/05 00:50:19;;;;;;;5.47;4.80;;;;;;;;;;5031817;28;20173;-86
2022/04/05 00:52:45;;;;;;;5.32;4.80;;;;;;;;;;5029687;28;20209;-87
2022/04/05 00:55:11;;;;;;;6.90;4.70;;;;;;;;;;5054173;28;20181;-86
2022/04/05 00:57:38;;;;;;;5.07;4.43;;;;;;;;;;5027909;28;20174;-87
2022/04/05 01:00:06;;;;;;;7.25;4.70;;;;;;;;;;5038521;28;20327;-87
2022/04/05 01:02:36;;;;;;;3.95;3.58;;;;;;;;;;5037602;28;20210;-87
2022/04/05 01:05:02;;;;;;;4.80;4.38;;;;;;;;;;5026706;28;20268;-89
2022/04/05 01:07:30;;;;;;;6.78;4.30;;;;;;;;;;5044702;28;20177;-87
2022/04/05 01:09:57;;;;;;;4.93;4.45;;;;;;;;;;5046239;28;20241;-86
2022/04/05 01:12:23;;;;;;;4.82;4.00;;;;;;;;;;5039839;28;20185;-86
2022/04/05 01:14:50;;;;;;;4.47;3.88;;;;;;;;;;5039138;28;20190;-86
2022/04/05 01:17:16;;;;;;;7.38;4.95;;;;;;;;;;5047270;28;20189;-87
2022/04/05 01:19:42;;;;;;;5.75;5.25;;;;;;;;;;5042020;28;20197;-86
2022/04/05 01:22:08;;;;;;;4.03;3.60;;;;;;;;;;5042884;28;20236;-88
2022/04/05 01:24:34;;;;;;;7.22;5.15;;;;;;;;;;5040054;28;20775;-85
2022/04/05 01:27:04;;;;;;;5.30;4.82;;;;;;;;;;5033561;28;20182;-86
2022/04/05 01:29:30;;;;;;;5.10;4.43;;;;;;;;;;5054200;28;20217;-85
2022/04/05 01:32:01;;;;;;;4.53;4.13;;;;;;;;;;5044690;28;20189;-87
2022/04/05 01:34:28;;;;;;;5.00;4.10;;;;;;;;;;5025999;28;20171;-85
2022/04/05 01:36:56;;;;;;;6.15;5.00;;;;;;;;;;5041459;28;20409;-85
2022/04/05 01:39:23;;;;;;;5.07;4.55;;;;;;;;;;5040412;28;20178;-86
2022/04/05 01:41:59;;;;;;;5.20;4.70;;;;;;;;;;5039071;28;20226;-86
2022/04/05 01:44:26;;;;;;;7.40;4.32;;;;;;;;;;5029248;28;20209;-86
2022/04/05 01:46:52;;;;;;;4.57;4.15;;;;;;;;;;5043583;28;20249;-85
2022/04/05 01:49:18;;;;;;;5.97;4.60;;;;;;;;;;5044019;28;20208;-84
2022/04/05 01:51:45;;;;;;;5.07;4.63;;;;;;;;;;5047659;28;20185;-86
2022/04/05 01:54:12;;;;;;;6.50;4.90;;;;;;;;;;5035841;28;20190;-87
2022/04/05 01:56:45;;;;;;;5.50;4.80;;;;;;;;;;5030770;28;20185;-87
2022/04/05 01:59:12;;;;;;;5.28;4.80;;;;;;;;;;5039201;28;20192;-85
2022/04/05 02:01:38;;;;;;;7.25;5.20;;;;;;;;;;5026157;28;20190;-86
2022/04/05 02:04:04;;;;;;;6.45;4.80;;;;;;;;;;5051295;28;20177;-86
2022/04/05 02:06:30;;;;;;;5.55;4.90;;;;;;;;;;5034038;28;20185;-86
2022/04/05 02:08:56;;;;;;;5.45;4.95;;;;;;;;;;5030024;28;20186;-86
2022/04/05 02:11:23;;;;;;;5.38;4.88;;;;;;;;;;5030200;28;20186;-86
2022/04/05 02:13:50;;;;;;;5.88;5.28;;;;;;;;;;5042000;28;20705;-86
2022/04/05 02:16:16;;;;;;;6.15;5.18;;;;;;;;;;5039648;28;20177;-85
2022/04/05 02:18:42;;;;;;;6.80;4.90;;;;;;;;;;5030775;28;20232;-86
2022/04/05 02:21:08;;;;;;;5.57;4.95;;;;;;;;;;5034877;28;20887;-85
2022/04/05 02:23:34;;;;;;;5.75;4.25;;;;;;;;;;5038617;28;20229;-86
2022/04/05 02:26:00;;;;;;;5.93;5.23;;;;;;;;;;5028902;28;20209;-89
2022/04/05 02:28:26;;;;;;;6.63;5.28;;;;;;;;;;5026819;28;20425;-85
2022/04/05 02:30:52;;;;;;;9.23;4.15;;;;;;;;;;5049598;28;20177;-86
2022/04/05 02:33:18;;;;;;;5.72;5.13;;;;;;;;;;5045516;28;20189;-87
2022/04/05 02:35:44;;;;;;;5.13;4.63;;;;;;;;;;5037641;28;20186;-86
2022/04/05 02:38:11;;;;;;;4.90;4.50;;;;;;;;;;5039029;28;20178;-87
2022/04/05 02:40:37;;;;;;;6.05;5.55;;;;;;;;;;5040115;28;20190;-89
2022/04/05 02:43:03;;;;;;;7.18;5.22;;;;;;;;;;5043537;28;20316;-89
2022/04/05 02:45:30;;;;;;;5.22;4.72;;;;;;;;;;5046947;28;20185;-86
2022/04/05 02:47:56;;;;;;;6.70;4.95;;;;;;;;;;5042024;28;20732;-86
2022/04/05 02:50:22;;;;;;;6.47;5.43;;;;;;;;;;5028352;28;20218;-89
2022/04/05 02:52:49;;;;;;;5.38;4.88;;;;;;;;;;5042410;28;20256;-86
2022/04/05 02:55:15;;;;;;;4.30;3.97;;;;;;;;;;5027580;28;20217;-87
2022/04/05 02:57:43;;;;;;;5.30;4.80;;;;;;;;;;5036764;28;20186;-87
2022/04/05 03:00:11;;;;;;;5.90;5.30;;;;;;;;;;5034073;28;20186;-87
2022/04/05 03:02:37;;;;;;;5.90;4.35;;;;;;;;;;5034461;28;20197;-87
2022/04/05 03:05:05;;;;;;;5.40;5.00;;;;;;;;;;5039081;28;20186;-85
2022/04/05 03:07:31;;;;;;;5.10;4.30;;;;;;;;;;5045757;28;20194;-87
2022/04/05 03:09:57;;;;;;;5.30;4.80;;;;;;;;;;5044126;28;20212;-86
2022/04/05 03:12:23;;;;;;;6.38;5.80;;;;;;;;;;5036420;28;20242;-86
2022/04/05 03:14:49;;;;;;;6.88;5.30;;;;;;;;;;5037066;28;20194;-88
2022/04/05 03:17:15;;;;;;;6.55;5.95;;;;;;;;;;5026838;28;20190;-85
2022/04/05 03:19:41;;;;;;;5.35;4.85;;;;;;;;;;5041854;28;20182;-87
2022/04/05 03:22:08;;;;;;;5.10;4.60;;;;;;;;;;5040599;28;20621;-87
2022/04/05 03:24:35;;;;;;;5.43;5.03;;;;;;;;;;5028197;28;20217;-87
2022/04/05 03:27:01;;;;;;;5.85;5.10;;;;;;;;;;5035387;28;20661;-88
2022/04/05 03:29:27;;;;;;;5.85;5.35;;;;;;;;;;5028953;28;20243;-86
2022/04/05 03:31:54;;;;;;;5.75;5.25;;;;;;;;;;5037474;28;20233;-86
2022/04/05 03:34:20;;;;;;;5.10;4.57;;;;;;;;;;5025796;28;20170;-86
2022/04/05 03:36:46;;;;;;;4.80;4.40;;;;;;;;;;5039713;28;20641;-86
2022/04/05 03:39:13;;;;;;;6.38;4.63;;;;;;;;;;5033307;28;20186;-87
2022/04/05 03:41:39;;;;;;;7.65;4.75;;;;;;;;;;5033091;28;20213;-86
2022/04/05 03:44:06;;;;;;;4.78;4.38;;;;;;;;;;5038418;28;20522;-87
2022/04/05 03:46:33;;;;;;;5.63;5.10;;;;;;;;;;5040449;28;20226;-86
2022/04/05 03:48:59;;;;;;;7.10;4.57;;;;;;;;;;5039097;28;20193;-86
2022/04/05 03:51:25;;;;;;;4.63;4.22;;;;;;;;;;5040379;28;20280;-88
2022/04/05 03:53:51;;;;;;;8.40;4.88;;;;;;;;;;5045167;28;20197;-86
2022/04/05 03:56:19;;;;;;;5.78;4.70;;;;;;;;;;5040282;28;20185;-86
2022/04/05 03:58:45;;;;;;;4.97;4.50;;;;;;;;;;5024777;28;20186;-87
2022/04/05 04:01:11;;;;;;;5.82;5.32;;;;;;;;;;5038790;28;20166;-84
2022/04/05 04:03:37;;;;;;;7.53;5.07;;;;;;;;;;5048902;28;20225;-85
2022/04/05 04:06:03;;;;;;;5.75;4.90;;;;;;;;;;5028016;28;20181;-86
2022/04/05 04:08:29;;;;;;;5.60;5.20;;;;;;;;;;5032889;28;20208;-89
2022/04/05 04:10:55;;;;;;;5.05;4.40;;;;;;;;;;5025372;28;20193;-86
2022/04/05 04:13:21;;;;;;;5.28;4.80;;;;;;;;;;5038731;28;20173;-86
2022/04/05 04:15:47;;;;;;;4.97;4.57;;;;;;;;;;5036344;28;20201;-87
2022/04/05 04:18:13;;;;;;;5.60;5.10;;;;;;;;;;5072389;28;20207;-85
2022/04/05 04:20:42;;;;;;;6.05;5.40;;;;;;;;;;5042971;28;20182;-84
2022/04/05 04:23:08;;;;;;;6.45;5.72;;;;;;;;;;5025887;28;20293;-85
2022/04/05 04:25:34;;;;;;;6.80;5.20;;;;;;;;;;5038800;28;20228;-86
2022/04/05 04:28:01;;;;;;;5.32;4.80;;;;;;;;;;5038459;28;20171;-86
2022/04/05 04:30:27;;;;;;;5.28;4.78;;;;;;;;;;5033613;28;20201;-86
2022/04/05 04:32:54;;;;;;;8.52;5.60;;;;;;;;;;5064988;28;20185;-85
2022/04/05 04:35:20;;;;;;;6.90;6.05;;;;;;;;;;5048524;28;20200;-86
2022/04/05 04:37:46;;;;;;;6.93;5.78;;;;;;;;;;5041320;28;20198;-87
2022/04/05 04:40:13;;;;;;;5.85;5.35;;;;;;;;;;5026368;28;20182;-86
2022/04/05 04:42:39;;;;;;;6.07;5.15;;;;;;;;;;5035963;28;20222;-86
2022/04/05 04:45:05;;;;;;;5.53;4.95;;;;;;;;;;5036581;28;20259;-86
2022/04/05 04:47:31;;;;;;;6.38;5.70;;;;;;;;;;5049051;28;20188;-87
2022/04/05 04:49:57;;;;;;;5.90;5.30;;;;;;;;;;5039295;28;20262;-85
2022/04/05 04:52:24;;;;;;;6.70;5.40;;;;;;;;;;5024648;28;20502;-86
2022/04/05 04:54:51;;;;;;;6.28;5.43;;;;;;;;;;5026284;28;20424;-87
2022/04/05 04:57:17;;;;;;;6.20;5.60;;;;;;;;;;5033216;28;20189;-86
2022/04/05 04:59:43;;;;;;;7.43;5.30;;;;;;;;;;5035390;28;20206;-86
2022/04/05 05:02:09;;;;;;;6.72;6.05;;;;;;;;;;5025596;28;20356;-86
2022/04/05 05:04:35;;;;;;;6.55;5.95;;;;;;;;;;5039411;28;20196;-88
2022/04/05 05:07:01;;;;;;;5.82;5.22;;;;;;;;;;5041215;28;20170;-85
2022/04/05 05:09:28;;;;;;;6.20;5.60;;;;;;;;;;5029521;28;20321;-86
2022/04/05 05:11:54;;;;;;;6.38;5.78;;;;;;;;;;5028744;28;20223;-87
2022/04/05 05:14:20;;;;;;;6.80;6.20;;;;;;;;;;5043552;28;20178;-88
2022/04/05 05:16:46;;;;;;;6.07;5.47;;;;;;;;;;5027603;28;20187;-85
2022/04/05 05:19:12;;;;;;;5.97;5.38;;;;;;;;;;5029250;28;20171;-85
2022/04/05 05:21:38;;;;;;;5.72;5.22;;;;;;;;;;5063640;28;20166;-85
2022/04/05 05:24:04;;;;;;;7.93;6.85;;;;;;;;;;5035383;28;20208;-87
2022/04/05 05:26:30;;;;;;;6.38;5.78;;;;;;;;;;5039377;28;20273;-85
2022/04/05 05:28:56;;;;;;;6.47;5.85;;;;;;;;;;5029247;28;20185;-86
2022/04/05 05:31:23;;;;;;;6.60;6.00;;;;;;;;;;5038119;28;20238;-85
2022/04/05 05:33:49;;;;;;;6.85;6.13;;;;;;;;;;5040510;28;20178;-86
2022/04/05 05:36:15;;;;;;;5.35;4.85;;;;;;;;;;5069053;28;20193;-86
2022/04/05 05:38:40;;;;;;;7.50;5.70;;;;;;;;;;5041225;28;20186;-87
2022/04/05 05:41:06;;;;;;;7.72;6.15;;;;;;;;;;5033218;28;20201;-88
2022/04/05 05:43:33;;;;;;;6.43;5.72;;;;;;;;;;5043943;28;20212;-86
2022/04/05 05:46:03;;;;;;;5.82;5.32;;;;;;;;;;5040290;28;20174;-88
2022/04/05 05:48:29;;;;;;;6.95;6.35;;;;;;;;;;5032316;28;20179;-86
2022/04/05 05:50:55;;;;;;;6.22;5.10;;;;;;;;;;5033361;28;20717;-86
2022/04/05 05:53:21;;;;;;;6.28;5.65;;;;;;;;;;5042104;28;20569;-86
2022/04/05 05:55:48;;;;;;;6.20;5.43;;;;;;;;;;5026139;28;20186;-86
2022/04/05 05:58:14;;;;;;;7.20;6.00;;;;;;;;;;5043858;28;20181;-85
2022/04/05 06:00:40;;;;;;;6.00;5.50;;;;;;;;;;5072220;28;20169;-87
2022/04/05 06:03:06;;;;;;;6.30;5.80;;;;;;;;;;5039023;28;20209;-86
2022/04/05 06:05:33;;;;;;;6.18;5.03;;;;;;;;;;5030429;28;20213;-86
2022/04/05 06:07:59;;;;;;;5.82;5.20;;;;;;;;;;5041818;28;20178;-86
2022/04/05 06:10:25;;;;;;;6.05;5.45;;;;;;;;;;5038431;28;20181;-86
2022/04/05 06:12:52;;;;;;;6.25;5.65;;;;;;;;;;5044250;28;20625;-87
2022/04/05 06:15:18;;;;;;;6.10;5.50;;;;;;;;;;5034723;28;20194;-85
2022/04/05 06:17:45;;;;;;;7.60;5.35;;;;;;;;;;5032778;28;20185;-85
2022/04/05 06:20:13;;;;;;;7.10;6.38;;;;;;;;;;5041830;28;20198;-88
2022/04/05 06:22:48;;;;;;;6.15;5.53;;;;;;;;;;5026361;28;20216;-87
2022/04/05 06:25:15;;;;;;;7.82;5.78;;;;;;;;;;5067804;28;20173;-85
2022/04/05 06:27:42;;;;;;;7.90;5.70;;;;;;;;;;5030574;28;20234;-87
2022/04/05 06:30:09;;;;;;;7.28;6.57;;;;;;;;;;5038901;28;20181;-85
2022/04/05 06:32:35;;;;;;;6.72;5.70;;;;;;;;;;5037931;28;20205;-86
2022/04/05 06:35:01;;;;;;;6.65;4.70;;;;;;;;;;5039129;28;20254;-84
2022/04/05 06:37:28;;;;;;;7.13;5.60;;;;;;;;;;5042799;28;20196;-85
2022/04/05 06:39:54;;;;;;;4.85;4.35;;;;;;;;;;5042701;28;20645;-83
2022/04/05 06:42:20;;;;;;;5.45;4.60;;;;;;;;;;5039960;28;20225;-83
2022/04/05 06:44:46;;;;;;;6.47;5.22;;;;;;;;;;5042562;28;20377;-83
2022/04/05 06:47:12;;;;;;;7.38;6.03;;;;;;;;;;5040234;28;20174;-83
2022/04/05 06:49:39;;;;;;;6.40;5.45;;;;;;;;;;5044136;28;20190;-83
2022/04/05 06:52:05;;;;;;;5.10;4.32;;;;;;;;;;5038128;28;20724;-82
2022/04/05 06:54:31;;;;;;;5.93;5.35;;;;;;;;;;5039389;28;20201;-83
2022/04/05 06:56:57;;;;;;;8.90;5.33;;;;;;;;;;5039509;28;20878;-81
2022/04/05 06:59:23;;;;;;;6.07;5.47;;;;;;;;;;5052876;28;20459;-81
2022/04/05 07:01:49;;;;;;;5.20;4.60;;;;;;;;;;5046674;28;20649;-82
2022/04/05 07:04:15;;;;;;;10.18;5.72;;;;;;;;;;5063878;28;20182;-82
2022/04/05 07:06:41;;;;;;;6.53;5.03;;;;;;;;;;5037062;28;20174;-80
2022/04/05 07:09:09;;;;;;;7.07;5.15;;;;;;;;;;5069409;28;20203;-83
2022/04/05 07:11:35;;;;;;;5.30;4.65;;;;;;;;;;5032041;28;20209;-86
2022/04/05 07:14:01;;;;;;;7.47;5.68;;;;;;;;;;5035777;28;20193;-83
2022/04/05 07:16:27;;;;;;;7.93;5.85;;;;;;;;;;5030075;28;20186;-85
2022/04/05 07:18:53;;;;;;;6.03;4.80;;;;;;;;;;5039014;28;20210;-85
2022/04/05 07:21:20;;;;;;;6.65;5.45;;;;;;;;;;5036376;28;20272;-86
2022/04/05 07:23:47;;;;;;;5.82;5.22;;;;;;;;;;5067407;28;20292;-86
2022/04/05 07:26:13;;;;;;;7.35;5.53;;;;;;;;;;5034534;28;20804;-85
2022/04/05 07:28:39;;;;;;;7.55;5.43;;;;;;;;;;5024066;28;20190;-85
2022/04/05 07:31:05;;;;;;;8.55;5.57;;;;;;;;;;5036406;28;20185;-85
2022/04/05 07:33:31;;;;;;;7.15;6.07;;;;;;;;;;5035825;28;20185;-85
2022/04/05 07:35:58;;;;;;;10.20;4.90;;;;;;;;;;5036027;28;20261;-82
2022/04/05 07:38:24;;;;;;;6.90;5.35;;;;;;;;;;5043889;28;20189;-85
2022/04/05 07:40:52;;;;;;;6.50;5.07;;;;;;;;;;5038942;28;20190;-85
2022/04/05 07:43:28;;;;;;;6.40;4.95;;;;;;;;;;5041888;28;20210;-86
2022/04/05 07:45:54;;;;;;;6.68;5.78;;;;;;;;;;5031583;28;20671;-82
2022/04/05 07:48:26;;;;;;;8.30;5.13;;;;;;;;;;5036669;28;20269;-83
2022/04/05 07:50:52;;;;;;;7.70;5.47;;;;;;;;;;5033690;28;20205;-85
2022/04/05 07:53:18;;;;;;;6.60;4.95;;;;;;;;;;5035713;28;20201;-85
2022/04/05 07:55:44;;;;;;;9.00;6.35;;;;;;;;;;5069269;28;20201;-85
2022/04/05 07:58:10;;;;;;;8.98;6.47;;;;;;;;;;5039719;28;20257;-82
2022/04/05 08:00:37;;;;;;;6.22;5.00;;;;;;;;;;5034127;28;20232;-85
2022/04/05 08:03:03;;;;;;;9.30;6.22;;;;;;;;;;5032642;28;20223;-86
2022/04/05 08:05:29;;;;;;;7.68;6.57;;;;;;;;;;5032467;28;20276;-86
2022/04/05 08:07:55;;;;;;;8.30;5.07;;;;;;;;;;5036404;28;20182;-86
2022/04/05 08:10:22;;;;;;;6.45;5.70;;;;;;;;;;5037026;28;20249;-87
2022/04/05 08:12:48;;;;;;;8.52;7.00;;;;;;;;;;5039990;28;20173;-85
2022/04/05 08:15:20;;;;;;;9.40;6.88;;;;;;;;;;5036525;28;20685;-86
2022/04/05 08:17:46;;;;;;;7.80;6.25;;;;;;;;;;5035140;28;20185;-84
2022/04/05 08:20:13;;;;;;;8.80;6.88;;;;;;;;;;5028777;28;20178;-85
2022/04/05 08:22:40;;;;;;;7.43;6.03;;;;;;;;;;5025167;28;20197;-86
2022/04/05 08:25:06;;;;;;;8.65;6.88;;;;;;;;;;5042065;28;20176;-84
2022/04/05 08:27:33;;;;;;;10.50;6.60;;;;;;;;;;5033844;28;20170;-84
2022/04/05 08:29:59;;;;;;;8.15;5.97;;;;;;;;;;5034409;28;20182;-84
2022/04/05 08:32:26;;;;;;;8.10;6.60;;;;;;;;;;5034621;28;20192;-84
2022/04/05 08:34:52;;;;;;;6.68;6.07;;;;;;;;;;5025207;28;20186;-84
2022/04/05 08:37:18;;;;;;;6.90;6.00;;;;;;;;;;5042997;28;20177;-85
2022/04/05 08:39:45;;;;;;;9.07;6.78;;;;;;;;;;5047114;28;20216;-84
2022/04/05 08:42:12;;;;;;;7.15;5.85;;;;;;;;;;5032499;28;20233;-84
2022/04/05 08:44:38;;;;;;;9.30;6.88;;;;;;;;;;5032107;28;20199;-85
2022/04/05 08:47:04;;;;;;;6.70;5.65;;;;;;;;;;5028096;28;20174;-84
2022/04/05 08:49:31;;;;;;;10.93;6.93;;;;;;;;;;5052423;28;20363;-85
2022/04/05 08:51:57;;;;;;;10.93;7.47;;;;;;;;;;5027471;28;20580;-84
2022/04/05 08:54:24;;;;;;;10.13;7.20;;;;;;;;;;5033052;28;20206;-84
2022/04/05 08:56:50;;;;;;;11.27;6.88;;;;;;;;;;5035392;28;20186;-83
2022/04/05 08:59:16;;;;;;;9.52;7.28;;;;;;;;;;5041700;28;20178;-83
2022/04/05 09:01:42;;;;;;;9.07;6.45;;;;;;;;;;5045529;28;20185;-85
2022/04/05 09:04:10;;;;;;;7.63;6.60;;;;;;;;;;5054384;28;20205;-82
2022/04/05 09:06:37;;;;;;;11.60;7.68;;;;;;;;;;5036162;28;20174;-83
2022/04/05 09:09:08;;;;;;;12.45;6.55;;;;;;;;;;5040275;28;20208;-82
2022/04/05 09:11:35;;;;;;;8.45;6.95;;;;;;;;;;5041629;28;20195;-82
2022/04/05 09:14:02;;;;;;;9.02;7.05;;;;;;;;;;5027480;28;20273;-82
2022/04/05 09:16:30;;;;;;;10.93;8.43;;;;;;;;;;5041362;28;20178;-82
2022/04/05 09:18:56;;;;;;;13.02;7.82;;;;;;;;;;5038895;28;20184;-82
2022/04/05 09:21:22;;;;;;;10.55;7.10;;;;;;;;;;5049517;28;20193;-82
2022/04/05 09:23:52;;;;;;;9.57;8.07;;;;;;;;;;5039739;28;20202;-83
2022/04/05 09:26:18;;;;;;;10.82;7.80;;;;;;;;;;5030338;28;20208;-82
2022/04/05 09:28:48;;;;;;;8.80;6.78;;;;;;;;;;5042777;28;20648;-83
2022/04/05 09:31:17;;;;;;;9.70;7.53;;;;;;;;;;5044455;28;20174;-83
2022/04/05 09:34:02;;;;;;;11.88;8.20;;;;;;;;;;5032398;28;20178;-81
2022/04/05 09:36:35;;;;;;;7.85;5.90;;;;;;;;;;5043464;28;20647;-82
2022/04/05 09:39:24;;;;;;;10.82;7.57;;;;;;;;;;5039554;28;20260;-80
2022/04/05 09:41:52;;;;;;;10.65;7.20;;;;;;;;;;5034309;28;20213;-80
2022/04/05 09:44:38;;;;;;;8.80;7.00;;;;;;;;;;5042022;28;20186;-82
2022/04/05 09:47:04;;;;;;;7.57;6.72;;;;;;;;;;5036099;28;20218;-81
2022/04/05 09:49:31;;;;;;;8.85;7.15;;;;;;;;;;5035584;28;20177;-82
2022/04/05 09:51:57;;;;;;;9.63;7.25;;;;;;;;;;5032719;28;20208;-84
2022/04/05 09:54:28;;;;;;;8.88;7.53;;;;;;;;;;5026923;28;20317;-82
2022/04/05 09:57:06;;;;;;;7.63;5.50;;;;;;;;;;5032251;28;20212;-81
2022/04/05 09:59:40;;;;;;;7.72;6.47;;;;;;;;;;5045497;28;20249;-81
2022/04/05 10:02:11;;;;;;;7.10;5.85;;;;;;;;;;5028409;28;20204;-80
2022/04/05 10:04:56;;;;;;;8.70;6.63;;;;;;;;;;5043586;28;20181;-82
2022/04/05 10:07:23;;;;;;;7.13;5.80;;;;;;;;;;5041106;28;20656;-83
2022/04/05 10:09:50;;;;;;;8.15;6.18;;;;;;;;;;5036741;28;20181;-83
2022/04/05 10:12:17;;;;;;;11.65;6.45;;;;;;;;;;5038278;28;20196;-82
2022/04/05 10:14:43;;;;;;;10.25;7.25;;;;;;;;;;5039485;28;20189;-82
2022/04/05 10:17:10;;;;;;;11.67;6.40;;;;;;;;;;5039897;28;20192;-83
2022/04/05 10:19:37;;;;;;;8.60;5.95;;;;;;;;;;5032976;28;20428;-82
2022/04/05 10:22:03;;;;;;;6.53;5.43;;;;;;;;;;5081910;28;20177;-81
2022/04/05 10:24:30;;;;;;;7.15;5.47;;;;;;;;;;5044206;28;20189;-82
2022/04/05 10:26:56;;;;;;;7.55;5.70;;;;;;;;;;5047218;28;20209;-81
2022/04/05 10:29:22;;;;;;;7.93;5.83;;;;;;;;;;5043638;28;20213;-82
2022/04/05 10:31:52;;;;;;;8.32;5.35;;;;;;;;;;5043937;28;20441;-81
2022/04/05 10:34:18;;;;;;;5.13;4.55;;;;;;;;;;5033578;28;20249;-82
2022/04/05 10:37:03;;;;;;;5.72;5.20;;;;;;;;;;5043224;28;20185;-83
2022/04/05 10:39:29;;;;;;;8.70;6.28;;;;;;;;;;5036985;28;20194;-85
2022/04/05 10:42:11;;;;;;;7.78;5.57;;;;;;;;;;5030889;28;20237;-84
2022/04/05 10:44:38;;;;;;;8.35;6.38;;;;;;;;;;5036785;28;20270;-84
2022/04/05 10:47:06;;;;;;;7.05;5.50;;;;;;;;;;5029531;28;20186;-84
2022/04/05 10:49:35;;;;;;;8.65;6.28;;;;;;;;;;5026759;28;20732;-84
2022/04/05 10:52:06;;;;;;;8.40;6.47;;;;;;;;;;5025472;28;20748;-85
2022/04/05 10:54:47;;;;;;;10.88;6.00;;;;;;;;;;5030848;28;20178;-84
2022/04/05 10:57:16;;;;;;;8.98;5.35;;;;;;;;;;5030520;28;20190;-84
2022/04/05 10:59:49;;;;;;;6.50;5.20;;;;;;;;;;5031062;28;20183;-82
2022/04/05 11:02:28;;;;;;;7.63;5.45;;;;;;;;;;5027010;28;20214;-84
2022/04/05 11:05:02;;;;;;;7.68;5.20;;;;;;;;;;5023590;28;20213;-84
2022/04/05 11:07:29;;;;;;;5.05;4.35;;;;;;;;;;5024855;28;20175;-85
2022/04/05 11:09:55;;;;;;;6.75;5.18;;;;;;;;;;5040680;28;20257;-84
2022/04/05 11:12:30;;;;;;;6.65;5.07;;;;;;;;;;5031446;28;20194;-86
2022/04/05 11:14:59;;;;;;;7.38;4.85;;;;;;;;;;5025684;28;20178;-84
2022/04/05 11:17:27;;;;;;;7.65;5.55;;;;;;;;;;5031418;28;20284;-84
2022/04/05 11:19:55;;;;;;;6.70;4.82;;;;;;;;;;5025816;28;20182;-85
2022/04/05 11:22:21;;;;;;;6.82;5.57;;;;;;;;;;5026909;28;20194;-84
2022/04/05 11:24:50;;;;;;;6.57;4.70;;;;;;;;;;5029415;28;20171;-83
2022/04/05 11:27:28;;;;;;;8.27;5.28;;;;;;;;;;5038090;28;20428;-84
2022/04/05 11:30:12;;;;;;;7.28;5.15;;;;;;;;;;5036573;28;20184;-84
2022/04/05 11:32:38;;;;;;;8.23;6.38;;;;;;;;;;5035549;28;20205;-84
2022/04/05 11:35:05;;;;;;;7.30;5.20;;;;;;;;;;5038433;28;20704;-85
2022/04/05 11:37:34;;;;;;;6.85;5.45;;;;;;;;;;5041343;28;20181;-84
2022/04/05 11:40:01;;;;;;;9.20;5.72;;;;;;;;;;5028538;28;20174;-85
2022/04/05 11:42:27;;;;;;;8.90;5.45;;;;;;;;;;5035137;28;20240;-85
2022/04/05 11:44:55;;;;;;;7.03;5.28;;;;;;;;;;5034694;28;20186;-85
2022/04/05 11:47:21;;;;;;;6.75;5.00;;;;;;;;;;5029106;28;20188;-85
2022/04/05 11:49:47;;;;;;;7.18;5.45;;;;;;;;;;5024690;28;20178;-86
2022/04/05 11:52:13;;;;;;;7.43;5.25;;;;;;;;;;5026771;28;20186;-84
2022/04/05 11:57:24;;;;;;;8.13;5.57;;;;;;;;;;5034380;28;20200;-86
2022/04/05 12:00:04;;;;;;;6.38;5.75;;;;;;;;;;5039757;28;20220;-85
2022/04/05 12:02:30;;;;;;;10.93;5.30;;;;;;;;;;5037835;28;20202;-88
2022/04/05 12:04:57;;;;;;;6.95;4.90;;;;;;;;;;5024440;28;20190;-87
2022/04/05 12:07:23;;;;;;;6.78;4.95;;;;;;;;;;5024876;28;20170;-84
2022/04/05 12:09:49;;;;;;;7.10;5.78;;;;;;;;;;5030611;28;20179;-88
2022/04/05 12:12:15;;;;;;;5.72;4.95;;;;;;;;;;5027471;28;20653;-85
2022/04/05 12:14:41;;;;;;;7.53;4.80;;;;;;;;;;5029456;28;20209;-83
2022/04/05 12:17:07;;;;;;;8.43;5.77;;;;;;;;;;5026312;28;20193;-85
2022/04/05 12:19:40;;;;;;;12.18;5.55;;;;;;;;;;5037991;28;20455;-85
2022/04/05 12:22:16;;;;;;;7.00;5.68;;;;;;;;;;5042317;28;20176;-85
2022/04/05 12:24:49;;;;;;;6.85;5.85;;;;;;;;;;5044548;28;20224;-82
2022/04/05 12:27:18;;;;;;;6.40;5.60;;;;;;;;;;5040102;28;20204;-84
2022/04/05 12:29:44;;;;;;;7.55;5.68;;;;;;;;;;5045622;28;20197;-88
2022/04/05 12:32:11;;;;;;;9.13;5.60;;;;;;;;;;5041963;28;20265;-84
2022/04/05 12:34:37;;;;;;;7.10;4.97;;;;;;;;;;5042557;28;20425;-84
2022/04/05 12:37:05;;;;;;;6.63;5.90;;;;;;;;;;5043464;28;20189;-86
2022/04/05 12:39:32;;;;;;;8.00;5.30;;;;;;;;;;5033361;28;20241;-83
2022/04/05 12:42:04;;;;;;;7.07;5.53;;;;;;;;;;5036345;28;20249;-85
2022/04/05 12:44:35;;;;;;;6.65;4.97;;;;;;;;;;5031458;28;20213;-86
2022/04/05 12:47:08;;;;;;;7.15;5.78;;;;;;;;;;5043066;28;20261;-85
2022/04/05 12:49:54;;;;;;;8.38;5.68;;;;;;;;;;5027902;28;20237;-87
2022/04/05 12:52:24;;;;;;;7.07;5.10;;;;;;;;;;5029891;28;20178;-86
2022/04/05 12:54:56;;;;;;;6.35;4.60;;;;;;;;;;5028651;28;20178;-86
2022/04/05 12:57:27;;;;;;;7.82;5.40;;;;;;;;;;5037726;28;20625;-86
2022/04/05 12:59:54;;;;;;;4.68;4.20;;;;;;;;;;5034758;28;20210;-84
2022/04/05 13:02:25;;;;;;;7.45;4.75;;;;;;;;;;5029532;28;20207;-85
2022/04/05 13:06:19;;;;;;;6.75;5.03;;;;;;;;;;5040967;28;20214;-84
2022/04/05 13:07:50;;;;;;;10.38;5.18;;;;;;;;;;5043799;28;20174;-85
2022/04/05 13:10:16;;;;;;;6.30;4.70;;;;;;;;;;5042281;28;20176;-84
2022/04/05 13:12:43;;;;;;;6.80;4.97;;;;;;;;;;5041970;28;20185;-85
2022/04/05 13:15:12;;;;;;;8.25;4.75;;;;;;;;;;5036040;28;20436;-86
2022/04/05 13:17:38;;;;;;;7.03;4.68;;;;;;;;;;5031775;28;20189;-86
2022/04/05 13:20:08;;;;;;;7.93;5.45;;;;;;;;;;5041454;28;20187;-86
2022/04/05 13:22:34;;;;;;;5.70;5.10;;;;;;;;;;5043052;28;20210;-85
2022/04/05 13:25:03;;;;;;;8.80;4.57;;;;;;;;;;5043349;28;20175;-85
2022/04/05 13:27:29;;;;;;;6.82;5.00;;;;;;;;;;5039475;28;20178;-85
2022/04/05 13:29:55;;;;;;;6.75;4.72;;;;;;;;;;5038919;28;20270;-86
2022/04/05 13:32:23;;;;;;;8.27;6.97;;;;;;;;;;5028763;28;20194;-86
2022/04/05 13:34:49;;;;;;;7.90;4.88;;;;;;;;;;5027796;28;20253;-84
2022/04/05 13:37:20;;;;;;;6.57;4.03;;;;;;;;;;5037787;28;20179;-87
2022/04/05 13:39:50;;;;;;;7.13;3.85;;;;;;;;;;5031666;28;20175;-82
2022/04/05 13:42:17;;;;;;;4.85;3.58;;;;;;;;;;5031274;28;20225;-83
2022/04/05 13:44:44;;;;;;;6.93;4.80;;;;;;;;;;5031799;28;20656;-88
2022/04/05 13:47:10;;;;;;;8.52;4.15;;;;;;;;;;5034828;28;20674;-87
2022/04/05 13:49:36;;;;;;;4.88;4.38;;;;;;;;;;5054075;28;20190;-86
2022/04/05 13:52:02;;;;;;;4.93;3.80;;;;;;;;;;5044524;28;20216;-85
2022/04/05 13:54:28;;;;;;;12.82;5.05;;;;;;;;;;5044063;28;20248;-83
2022/04/05 13:56:54;;;;;;;8.73;4.95;;;;;;;;;;5038354;28;20586;-84
2022/04/05 13:59:20;;;;;;;6.55;5.07;;;;;;;;;;5034698;28;20273;-83
2022/04/05 14:01:46;;;;;;;6.32;4.63;;;;;;;;;;5069290;28;20242;-83
2022/04/05 14:04:12;;;;;;;7.00;4.72;;;;;;;;;;5036020;28;20213;-83
2022/04/05 14:06:38;;;;;;;9.90;4.90;;;;;;;;;;5040769;28;20183;-85
2022/04/05 14:09:04;;;;;;;7.97;4.75;;;;;;;;;;5037323;28;20250;-84
2022/04/05 14:11:31;;;;;;;4.95;4.25;;;;;;;;;;5074073;28;20249;-84
2022/04/05 14:13:58;;;;;;;9.77;4.70;;;;;;;;;;5039560;28;20189;-85
2022/04/05 14:16:25;;;;;;;8.70;5.22;;;;;;;;;;5045458;28;20680;-83
2022/04/05 14:18:51;;;;;;;7.68;5.28;;;;;;;;;;5046595;28;20196;-84
2022/04/05 14:21:17;;;;;;;5.25;4.35;;;;;;;;;;5037990;28;20477;-83
2022/04/05 14:23:43;;;;;;;6.90;4.15;;;;;;;;;;5036302;28;20286;-84
2022/04/05 14:26:10;;;;;;;5.57;4.78;;;;;;;;;;5037600;28;20193;-84
2022/04/05 14:28:36;;;;;;;7.18;5.22;;;;;;;;;;5031966;28;20339;-83
2022/04/05 14:31:02;;;;;;;4.80;3.87;;;;;;;;;;5024957;28;20709;-83
2022/04/05 14:33:28;;;;;;;5.95;4.32;;;;;;;;;;5040083;28;20533;-82
2022/04/05 14:35:54;;;;;;;5.90;4.32;;;;;;;;;;5040464;28;20189;-85
2022/04/05 14:38:21;;;;;;;6.15;5.03;;;;;;;;;;5046996;28;20186;-83
2022/04/05 14:40:47;;;;;;;4.35;3.95;;;;;;;;;;5040469;28;20190;-84
2022/04/05 14:43:13;;;;;;;6.45;4.90;;;;;;;;;;5045058;28;20220;-83
2022/04/05 14:45:42;;;;;;;5.75;4.30;;;;;;;;;;5037976;28;20182;-86
2022/04/05 14:48:08;;;;;;;7.47;4.65;;;;;;;;;;5043899;28;20185;-82